Time;durP1;ratioP1;P1;durP2;ratioP2;P2;SDS_P1;SDS_P2;PMS_P1;PMS_P2;Temp;Humidity;BMP_temperature;BMP_pressure;BME280_temperature;BME280_humidity;BME280_pressure;Samples;Min_cycle;Max_cycle;Signal;HPM_P1;HPM_P2
2023/05/17 00:01:57;;;;;;;5.35;1.55;;;;;;;;;;5029856;28;20062;-70
2023/05/17 00:04:23;;;;;;;7.47;1.50;;;;;;;;;;5017350;28;20057;-67
2023/05/17 00:06:50;;;;;;;3.53;1.27;;;;;;;;;;5011612;28;20136;-64
2023/05/17 00:09:16;;;;;;;6.63;1.73;;;;;;;;;;5008607;28;20056;-68
2023/05/17 00:11:44;;;;;;;3.67;1.33;;;;;;;;;;5031776;28;20057;-66
2023/05/17 00:14:10;;;;;;;5.88;1.23;;;;;;;;;;5014508;28;20061;-69
2023/05/17 00:16:36;;;;;;;3.67;1.35;;;;;;;;;;5020820;28;20069;-70
2023/05/17 00:19:03;;;;;;;6.20;1.52;;;;;;;;;;5009919;28;20054;-69
2023/05/17 00:21:30;;;;;;;4.97;1.45;;;;;;;;;;5012073;28;20144;-68
2023/05/17 00:23:56;;;;;;;5.38;1.60;;;;;;;;;;5014378;28;20065;-71
2023/05/17 00:26:22;;;;;;;4.57;1.40;;;;;;;;;;5017705;28;20144;-71
2023/05/17 00:28:51;;;;;;;4.35;1.50;;;;;;;;;;5008958;28;20064;-69
2023/05/17 00:31:18;;;;;;;4.78;1.55;;;;;;;;;;5019157;28;20053;-68
2023/05/17 00:33:45;;;;;;;5.80;1.60;;;;;;;;;;5006591;28;20085;-69
2023/05/17 00:36:11;;;;;;;6.25;1.52;;;;;;;;;;5011962;28;20057;-67
2023/05/17 00:38:38;;;;;;;3.92;1.42;;;;;;;;;;5017247;28;20064;-71
2023/05/17 00:41:05;;;;;;;6.50;1.55;;;;;;;;;;5010560;28;20145;-69
2023/05/17 00:43:31;;;;;;;5.05;1.50;;;;;;;;;;5046194;28;20298;-70
2023/05/17 00:45:59;;;;;;;7.30;1.80;;;;;;;;;;5014120;28;20063;-68
2023/05/17 00:48:25;;;;;;;5.23;1.53;;;;;;;;;;5020375;28;20053;-67
2023/05/17 00:50:52;;;;;;;7.07;1.52;;;;;;;;;;5013590;28;20168;-70
2023/05/17 00:53:19;;;;;;;4.15;1.80;;;;;;;;;;4998572;28;20068;-68
2023/05/17 00:55:45;;;;;;;5.70;1.50;;;;;;;;;;5006047;28;20084;-69
2023/05/17 00:58:12;;;;;;;3.63;1.35;;;;;;;;;;5017893;28;20428;-67
2023/05/17 01:00:39;;;;;;;3.95;1.42;;;;;;;;;;5010569;28;20045;-67
2023/05/17 01:03:07;;;;;;;3.47;1.42;;;;;;;;;;5061149;28;20056;-67
2023/05/17 01:05:33;;;;;;;5.87;1.73;;;;;;;;;;5040095;28;20164;-69
2023/05/17 01:08:00;;;;;;;5.55;1.40;;;;;;;;;;5034162;28;20059;-69
2023/05/17 01:10:31;;;;;;;5.15;1.60;;;;;;;;;;5020264;28;20088;-69
2023/05/17 01:13:02;;;;;;;5.72;1.58;;;;;;;;;;5019248;28;20120;-65
2023/05/17 01:15:31;;;;;;;6.90;1.42;;;;;;;;;;5012455;28;20207;-67
2023/05/17 01:17:57;;;;;;;;;;;;;;;;;;5015491;28;20057;-63
2023/05/17 01:20:27;;;;;;;4.00;1.50;;;;;;;;;;5040244;28;19924;-69
2023/05/17 01:23:00;;;;;;;5.32;1.60;;;;;;;;;;5017335;28;20069;-68
2023/05/17 01:25:34;;;;;;;4.63;1.20;;;;;;;;;;5020164;28;20064;-68
2023/05/17 01:28:03;;;;;;;5.78;1.65;;;;;;;;;;5023224;28;20058;-67
2023/05/17 01:30:31;;;;;;;5.80;1.52;;;;;;;;;;5019838;28;20135;-66
2023/05/17 01:32:58;;;;;;;5.82;1.50;;;;;;;;;;5028449;28;20057;-66
2023/05/17 01:35:25;;;;;;;4.25;1.60;;;;;;;;;;4996327;28;20057;-67
2023/05/17 01:37:52;;;;;;;5.18;1.50;;;;;;;;;;5007298;28;20063;-66
2023/05/17 01:40:19;;;;;;;5.43;1.65;;;;;;;;;;5039147;28;20057;-68
2023/05/17 01:42:48;;;;;;;5.20;1.70;;;;;;;;;;5034420;28;20056;-69
2023/05/17 01:45:19;;;;;;;4.57;1.77;;;;;;;;;;5019148;28;20088;-64
2023/05/17 01:47:50;;;;;;;3.97;1.48;;;;;;;;;;5014261;28;20051;-68
2023/05/17 01:50:19;;;;;;;6.22;1.95;;;;;;;;;;5037523;28;20149;-64
2023/05/17 01:52:49;;;;;;;4.15;1.52;;;;;;;;;;5034098;28;20229;-64
2023/05/17 01:55:19;;;;;;;4.40;1.80;;;;;;;;;;5034073;28;20088;-66
2023/05/17 01:57:48;;;;;;;4.65;1.95;;;;;;;;;;5033878;28;20057;-63
2023/05/17 02:00:17;;;;;;;5.10;1.52;;;;;;;;;;5017519;28;20057;-68
2023/05/17 02:02:44;;;;;;;4.43;1.40;;;;;;;;;;5015870;28;20084;-68
2023/05/17 02:05:11;;;;;;;4.07;1.40;;;;;;;;;;4980783;28;20061;-68
2023/05/17 02:07:38;;;;;;;5.47;2.00;;;;;;;;;;5001816;28;20065;-64
2023/05/17 02:10:05;;;;;;;6.68;1.90;;;;;;;;;;5033966;28;20075;-67
2023/05/17 02:12:32;;;;;;;4.72;1.67;;;;;;;;;;5022671;28;20049;-66
2023/05/17 02:14:58;;;;;;;6.25;1.67;;;;;;;;;;5028309;28;20057;-68
2023/05/17 02:17:28;;;;;;;7.20;2.17;;;;;;;;;;5038655;28;20118;-67
2023/05/17 02:19:55;;;;;;;10.77;1.90;;;;;;;;;;5016296;28;20084;-68
2023/05/17 02:22:21;;;;;;;6.50;1.65;;;;;;;;;;5001268;28;20050;-67
2023/05/17 02:24:47;;;;;;;4.38;1.55;;;;;;;;;;5018176;28;20203;-66
2023/05/17 02:27:14;;;;;;;6.88;1.92;;;;;;;;;;5037526;28;20160;-65
2023/05/17 02:29:41;;;;;;;6.85;1.60;;;;;;;;;;5020894;28;20044;-67
2023/05/17 02:32:07;;;;;;;5.85;1.70;;;;;;;;;;5037788;28;20057;-69
2023/05/17 02:34:35;;;;;;;5.90;1.60;;;;;;;;;;5006905;28;20071;-65
2023/05/17 02:37:02;;;;;;;7.00;1.77;;;;;;;;;;5039076;28;20057;-67
2023/05/17 02:39:28;;;;;;;12.40;2.00;;;;;;;;;;5020439;28;20135;-70
2023/05/17 02:41:54;;;;;;;8.82;1.80;;;;;;;;;;5020155;28;20093;-70
2023/05/17 02:44:21;;;;;;;6.90;1.70;;;;;;;;;;5012243;28;20076;-66
2023/05/17 02:46:47;;;;;;;5.75;2.00;;;;;;;;;;5033753;28;20064;-65
2023/05/17 02:49:14;;;;;;;5.43;1.63;;;;;;;;;;5019913;28;20057;-66
2023/05/17 02:51:41;;;;;;;4.68;1.35;;;;;;;;;;5016726;28;20053;-69
2023/05/17 02:54:08;;;;;;;7.95;1.70;;;;;;;;;;5015743;28;20053;-68
2023/05/17 02:56:34;;;;;;;5.45;1.85;;;;;;;;;;5041145;28;20052;-68
2023/05/17 02:59:01;;;;;;;4.28;1.48;;;;;;;;;;5036708;28;20061;-65
2023/05/17 03:01:27;;;;;;;5.70;1.42;;;;;;;;;;5010912;28;20065;-64
2023/05/17 03:03:54;;;;;;;6.32;1.77;;;;;;;;;;4986079;28;20065;-69
2023/05/17 03:06:20;;;;;;;6.85;1.77;;;;;;;;;;5017853;28;20057;-69
2023/05/17 03:08:49;;;;;;;4.07;1.65;;;;;;;;;;5003631;28;20053;-65
2023/05/17 03:11:15;;;;;;;4.47;1.45;;;;;;;;;;5006858;28;20088;-69
2023/05/17 03:13:41;;;;;;;5.40;1.75;;;;;;;;;;4977253;28;20173;-70
2023/05/17 03:16:08;;;;;;;10.30;1.98;;;;;;;;;;4985614;28;20637;-68
2023/05/17 03:18:34;;;;;;;6.45;1.73;;;;;;;;;;5013050;28;20058;-65
2023/05/17 03:21:01;;;;;;;5.45;1.60;;;;;;;;;;5010112;28;20135;-70
2023/05/17 03:23:27;;;;;;;10.50;1.95;;;;;;;;;;4997865;28;20442;-66
2023/05/17 03:25:55;;;;;;;6.20;1.75;;;;;;;;;;4964517;28;20068;-69
2023/05/17 03:28:21;;;;;;;5.32;1.80;;;;;;;;;;5014113;28;20077;-70
2023/05/17 03:30:48;;;;;;;5.60;1.80;;;;;;;;;;5011872;28;20220;-69
2023/05/17 03:33:14;;;;;;;6.82;1.58;;;;;;;;;;5008350;28;20221;-68
2023/05/17 03:35:41;;;;;;;7.70;1.58;;;;;;;;;;4976493;28;20056;-65
2023/05/17 03:38:08;;;;;;;6.50;2.20;;;;;;;;;;5009897;28;20069;-65
2023/05/17 03:40:34;;;;;;;4.68;1.63;;;;;;;;;;5008428;28;20073;-67
2023/05/17 03:43:02;;;;;;;5.55;1.83;;;;;;;;;;5011823;28;20123;-70
2023/05/17 03:45:29;;;;;;;6.20;2.37;;;;;;;;;;5026834;28;20158;-69
2023/05/17 03:47:55;;;;;;;6.60;1.70;;;;;;;;;;5023126;28;20061;-70
2023/05/17 03:50:24;;;;;;;6.68;1.67;;;;;;;;;;5017296;28;20064;-67
2023/05/17 03:52:51;;;;;;;5.05;1.70;;;;;;;;;;5011273;28;20114;-66
2023/05/17 03:55:18;;;;;;;4.95;1.65;;;;;;;;;;5014347;28;20129;-68
2023/05/17 03:57:45;;;;;;;6.35;2.10;;;;;;;;;;5031273;28;20053;-70
2023/05/17 04:00:20;;;;;;;6.65;1.90;;;;;;;;;;5019775;28;20148;-70
2023/05/17 04:02:50;;;;;;;6.45;1.75;;;;;;;;;;5018356;28;20114;-70
2023/05/17 04:05:17;;;;;;;5.03;1.50;;;;;;;;;;5018494;28;20053;-67
2023/05/17 04:07:43;;;;;;;5.82;2.00;;;;;;;;;;5020772;28;20110;-68
2023/05/17 04:10:10;;;;;;;7.10;1.90;;;;;;;;;;5039743;28;20140;-68
2023/05/17 04:12:37;;;;;;;8.43;2.13;;;;;;;;;;5029175;28;20041;-67
2023/05/17 04:15:03;;;;;;;5.70;2.03;;;;;;;;;;5019077;28;20057;-68
2023/05/17 04:17:31;;;;;;;9.85;2.00;;;;;;;;;;5022370;28;20073;-67
2023/05/17 04:19:58;;;;;;;6.70;1.70;;;;;;;;;;5035984;28;20061;-71
2023/05/17 04:22:24;;;;;;;6.78;1.95;;;;;;;;;;5037855;28;20426;-67
2023/05/17 04:24:51;;;;;;;4.45;1.67;;;;;;;;;;5016539;28;20177;-70
2023/05/17 04:27:17;;;;;;;6.78;2.08;;;;;;;;;;5023018;28;20160;-71
2023/05/17 04:29:44;;;;;;;5.20;1.90;;;;;;;;;;5037022;28;20071;-69
2023/05/17 04:32:11;;;;;;;4.07;1.63;;;;;;;;;;5040288;28;20061;-66
2023/05/17 04:34:42;;;;;;;5.50;1.80;;;;;;;;;;4997862;28;20364;-68
2023/05/17 04:37:08;;;;;;;6.40;2.03;;;;;;;;;;5025682;28;20072;-69
2023/05/17 04:39:36;;;;;;;6.53;2.00;;;;;;;;;;5039733;28;20088;-67
2023/05/17 04:42:03;;;;;;;9.30;2.00;;;;;;;;;;5044387;28;20084;-66
2023/05/17 04:44:40;;;;;;;7.28;1.98;;;;;;;;;;5031324;28;20057;-67
2023/05/17 04:47:09;;;;;;;4.40;2.00;;;;;;;;;;5027093;28;20131;-65
2023/05/17 04:49:40;;;;;;;4.28;1.80;;;;;;;;;;5022120;28;20065;-66
2023/05/17 04:52:07;;;;;;;4.25;1.48;;;;;;;;;;5046120;28;20053;-64
2023/05/17 04:54:33;;;;;;;5.40;1.95;;;;;;;;;;5002065;28;20410;-71
2023/05/17 04:57:00;;;;;;;6.43;2.20;;;;;;;;;;5023488;28;20052;-65
2023/05/17 04:59:27;;;;;;;5.72;1.80;;;;;;;;;;5038065;28;20064;-66
2023/05/17 05:01:59;;;;;;;6.80;2.35;;;;;;;;;;5011928;28;20061;-68
2023/05/17 05:04:29;;;;;;;7.22;1.85;;;;;;;;;;4989637;28;20081;-69
2023/05/17 05:06:56;;;;;;;6.82;1.92;;;;;;;;;;5019428;28;20050;-66
2023/05/17 05:09:26;;;;;;;7.23;2.07;;;;;;;;;;5007501;28;20191;-69
2023/05/17 05:12:02;;;;;;;5.32;1.92;;;;;;;;;;5010048;28;20484;-67
2023/05/17 05:14:30;;;;;;;5.25;1.83;;;;;;;;;;4967578;28;20077;-64
2023/05/17 05:16:56;;;;;;;4.72;1.73;;;;;;;;;;5029612;28;20057;-68
2023/05/17 05:19:25;;;;;;;7.10;1.90;;;;;;;;;;5019223;28;20061;-69
2023/05/17 05:21:51;;;;;;;;;;;;;;;;;;5004329;28;20074;-67
2023/05/17 05:24:22;;;;;;;4.45;1.90;;;;;;;;;;4986154;28;19925;-65
2023/05/17 05:26:50;;;;;;;5.78;2.00;;;;;;;;;;5014943;28;20054;-67
2023/05/17 05:29:17;;;;;;;4.78;1.80;;;;;;;;;;5054821;28;20053;-66
2023/05/17 05:31:44;;;;;;;5.13;1.95;;;;;;;;;;5017524;28;20140;-70
2023/05/17 05:34:10;;;;;;;5.03;1.77;;;;;;;;;;4999851;28;20117;-69
2023/05/17 05:36:37;;;;;;;4.18;1.90;;;;;;;;;;5025050;28;20134;-68
2023/05/17 05:39:03;;;;;;;6.75;2.10;;;;;;;;;;5016246;28;20057;-69
2023/05/17 05:41:31;;;;;;;5.25;1.90;;;;;;;;;;5010677;28;20053;-65
2023/05/17 05:44:00;;;;;;;6.72;2.00;;;;;;;;;;5017903;28;20057;-66
2023/05/17 05:46:30;;;;;;;6.47;2.28;;;;;;;;;;5010496;28;20093;-67
2023/05/17 05:49:00;;;;;;;5.35;2.00;;;;;;;;;;5017940;28;20124;-68
2023/05/17 05:51:26;;;;;;;7.22;2.70;;;;;;;;;;5007592;28;20809;-67
2023/05/17 05:53:53;;;;;;;4.25;1.80;;;;;;;;;;5014681;28;20063;-66
2023/05/17 05:56:19;;;;;;;6.18;1.98;;;;;;;;;;4998790;28;20096;-68
2023/05/17 05:58:50;;;;;;;5.60;2.05;;;;;;;;;;5001250;28;20053;-71
2023/05/17 06:01:16;;;;;;;7.72;2.08;;;;;;;;;;5022156;28;20057;-67
2023/05/17 06:03:43;;;;;;;5.60;2.15;;;;;;;;;;5016706;28;20061;-66
2023/05/17 06:06:13;;;;;;;5.43;1.40;;;;;;;;;;5043621;28;20040;-72
2023/05/17 06:08:44;;;;;;;7.63;2.40;;;;;;;;;;5013696;28;20098;-69
2023/05/17 06:11:23;;;;;;;5.82;2.15;;;;;;;;;;5035752;28;20116;-71
2023/05/17 06:13:51;;;;;;;6.90;2.35;;;;;;;;;;5034783;28;20124;-69
2023/05/17 06:16:21;;;;;;;4.03;1.70;;;;;;;;;;5003291;28;20071;-68
2023/05/17 06:18:51;;;;;;;6.15;1.85;;;;;;;;;;5026922;28;20418;-71
2023/05/17 06:21:17;;;;;;;3.47;1.48;;;;;;;;;;5021755;28;20053;-68
2023/05/17 06:23:49;;;;;;;6.57;2.10;;;;;;;;;;5033851;28;20052;-71
2023/05/17 06:26:15;;;;;;;5.22;1.90;;;;;;;;;;5009813;28;20450;-72
2023/05/17 06:28:42;;;;;;;5.90;1.90;;;;;;;;;;5051577;28;20063;-70
2023/05/17 06:31:12;;;;;;;8.52;2.58;;;;;;;;;;5038273;28;20064;-67
2023/05/17 06:33:39;;;;;;;7.40;2.40;;;;;;;;;;5034650;28;20369;-67
2023/05/17 06:36:05;;;;;;;6.13;1.88;;;;;;;;;;5026701;28;20051;-69
2023/05/17 06:38:34;;;;;;;8.07;1.90;;;;;;;;;;5011079;28;20088;-71
2023/05/17 06:41:05;;;;;;;8.50;2.17;;;;;;;;;;5060638;28;20052;-72
2023/05/17 06:43:34;;;;;;;7.22;1.85;;;;;;;;;;5054753;28;20076;-68
2023/05/17 06:46:00;;;;;;;;;;;;;;;;;;5044653;28;20048;-71
2023/05/17 06:48:28;;;;;;;7.90;1.70;;;;;;;;;;5017245;28;19924;-70
2023/05/17 06:50:55;;;;;;;7.38;1.90;;;;;;;;;;5032893;28;20086;-67
2023/05/17 06:53:23;;;;;;;8.23;1.70;;;;;;;;;;5034223;28;20065;-69
2023/05/17 06:55:49;;;;;;;8.55;2.20;;;;;;;;;;5046556;28;20064;-70
2023/05/17 06:58:16;;;;;;;4.88;1.75;;;;;;;;;;5019231;28;20072;-71
2023/05/17 07:00:44;;;;;;;6.97;1.60;;;;;;;;;;5039679;28;20052;-70
2023/05/17 07:03:13;;;;;;;8.25;1.23;;;;;;;;;;5022884;28;20052;-72
2023/05/17 07:05:41;;;;;;;8.30;1.45;;;;;;;;;;5011430;28;20576;-69
2023/05/17 07:08:12;;;;;;;10.90;1.95;;;;;;;;;;5021813;28;20247;-70
2023/05/17 07:10:47;;;;;;;6.23;1.30;;;;;;;;;;5040940;28;20061;-70
2023/05/17 07:13:17;;;;;;;10.65;1.50;;;;;;;;;;5022433;28;20055;-69
2023/05/17 07:15:44;;;;;;;3.63;1.40;;;;;;;;;;5014619;28;20067;-71
2023/05/17 07:18:13;;;;;;;8.13;1.85;;;;;;;;;;5036478;28;20060;-71
2023/05/17 07:20:40;;;;;;;5.85;1.48;;;;;;;;;;5020816;28;20057;-68
2023/05/17 07:23:13;;;;;;;9.30;1.50;;;;;;;;;;5038210;28;20057;-69
2023/05/17 07:25:41;;;;;;;3.85;1.45;;;;;;;;;;5004158;28;20048;-68
2023/05/17 07:28:08;;;;;;;6.00;1.52;;;;;;;;;;5042525;28;20084;-69
2023/05/17 07:30:45;;;;;;;4.90;1.25;;;;;;;;;;5027339;28;20089;-71
2023/05/17 07:33:13;;;;;;;5.63;1.58;;;;;;;;;;5031854;28;20092;-68
2023/05/17 07:35:47;;;;;;;5.43;1.27;;;;;;;;;;4998821;28;20092;-66
2023/05/17 07:38:16;;;;;;;7.07;1.30;;;;;;;;;;5041065;28;20056;-68
2023/05/17 07:40:43;;;;;;;5.93;1.35;;;;;;;;;;5029891;28;20053;-70
2023/05/17 07:43:10;;;;;;;7.90;1.33;;;;;;;;;;5040388;28;20065;-70
2023/05/17 07:45:36;;;;;;;3.80;0.93;;;;;;;;;;5037779;28;20057;-70
2023/05/17 07:48:02;;;;;;;8.77;1.25;;;;;;;;;;5037210;28;20057;-67
2023/05/17 07:50:35;;;;;;;8.05;1.40;;;;;;;;;;5013703;28;20067;-68
2023/05/17 07:53:02;;;;;;;9.02;1.20;;;;;;;;;;5029330;28;20053;-69
2023/05/17 07:55:31;;;;;;;6.00;1.17;;;;;;;;;;5019544;28;20048;-72
2023/05/17 07:57:58;;;;;;;3.95;1.30;;;;;;;;;;5024847;28;20061;-71
2023/05/17 08:00:25;;;;;;;7.55;1.48;;;;;;;;;;5019175;28;20061;-70
2023/05/17 08:02:53;;;;;;;7.25;1.50;;;;;;;;;;5016070;28;20057;-67
2023/05/17 08:05:26;;;;;;;4.55;0.98;;;;;;;;;;5030694;28;20140;-69
2023/05/17 08:07:53;;;;;;;5.55;1.30;;;;;;;;;;5031236;28;20440;-72
2023/05/17 08:10:29;;;;;;;6.57;1.40;;;;;;;;;;5036852;28;20060;-70
2023/05/17 08:12:55;;;;;;;6.57;1.40;;;;;;;;;;5034600;28;20557;-67
2023/05/17 08:15:22;;;;;;;6.13;1.35;;;;;;;;;;5050496;28;20152;-71
2023/05/17 08:17:48;;;;;;;5.15;1.30;;;;;;;;;;5054101;28;20063;-68
2023/05/17 08:20:15;;;;;;;9.45;1.50;;;;;;;;;;5021756;28;20064;-71
2023/05/17 08:22:41;;;;;;;6.75;1.15;;;;;;;;;;5028131;28;20335;-69
2023/05/17 08:25:10;;;;;;;5.85;1.15;;;;;;;;;;5032429;28;20048;-67
2023/05/17 08:27:39;;;;;;;3.97;0.98;;;;;;;;;;5035623;28;20056;-70
2023/05/17 08:30:16;;;;;;;2.97;0.90;;;;;;;;;;5039108;28;20084;-66
2023/05/17 08:32:43;;;;;;;6.47;1.27;;;;;;;;;;5049124;28;20049;-69
2023/05/17 08:35:14;;;;;;;4.85;1.08;;;;;;;;;;5019074;28;20054;-73
2023/05/17 08:37:41;;;;;;;13.10;1.40;;;;;;;;;;5038931;28;20067;-70
2023/05/17 08:40:10;;;;;;;7.22;1.10;;;;;;;;;;5018941;28;20061;-69
2023/05/17 08:42:41;;;;;;;7.13;1.20;;;;;;;;;;5030937;28;20052;-68
2023/05/17 08:45:11;;;;;;;4.78;0.98;;;;;;;;;;5002774;28;20059;-70
2023/05/17 08:47:42;;;;;;;4.72;1.23;;;;;;;;;;5036667;28;20057;-71
2023/05/17 08:50:10;;;;;;;4.68;0.90;;;;;;;;;;5050671;28;20484;-71
2023/05/17 08:52:37;;;;;;;;;;;;;;;;;;5044956;28;20076;-66
2023/05/17 08:55:07;;;;;;;6.75;1.33;;;;;;;;;;4998473;28;20320;-69
2023/05/17 08:57:36;;;;;;;6.35;1.17;;;;;;;;;;5035421;28;20064;-71
2023/05/17 09:00:14;;;;;;;6.20;1.10;;;;;;;;;;5045420;28;20088;-68
2023/05/17 09:02:41;;;;;;;5.47;1.00;;;;;;;;;;5005366;28;20281;-67
2023/05/17 09:05:12;;;;;;;6.38;1.30;;;;;;;;;;4996253;28;20382;-69
2023/05/17 09:07:41;;;;;;;4.07;0.90;;;;;;;;;;5044324;28;20089;-71
2023/05/17 09:10:12;;;;;;;5.50;1.10;;;;;;;;;;5002233;28;20049;-74
2023/05/17 09:12:39;;;;;;;6.35;1.17;;;;;;;;;;4999671;28;20088;-68
2023/05/17 09:15:15;;;;;;;6.35;1.05;;;;;;;;;;4985524;28;20145;-70
2023/05/17 09:17:42;;;;;;;4.38;1.00;;;;;;;;;;5010278;28;20050;-72
2023/05/17 09:20:35;;;;;;;6.55;1.27;;;;;;;;;;4999472;28;20064;-71
2023/05/17 09:23:02;;;;;;;5.57;1.30;;;;;;;;;;5005766;28;20069;-69
2023/05/17 09:25:31;;;;;;;3.97;1.23;;;;;;;;;;4978724;28;20058;-72
2023/05/17 09:28:00;;;;;;;7.03;1.10;;;;;;;;;;5008963;28;20062;-70
2023/05/17 09:30:36;;;;;;;6.72;1.23;;;;;;;;;;4996864;28;20054;-68
2023/05/17 09:33:07;;;;;;;3.72;1.23;;;;;;;;;;5015360;28;20073;-68
2023/05/17 09:35:35;;;;;;;2.95;1.17;;;;;;;;;;5013039;28;20153;-64
2023/05/17 09:38:08;;;;;;;9.32;1.13;;;;;;;;;;5010082;28;20065;-71
2023/05/17 09:40:37;;;;;;;5.10;1.17;;;;;;;;;;4990479;28;20185;-65
2023/05/17 09:43:04;;;;;;;7.65;1.20;;;;;;;;;;5010932;28;20066;-75
2023/05/17 09:45:35;;;;;;;5.05;0.95;;;;;;;;;;4985462;28;20060;-68
2023/05/17 09:48:12;;;;;;;4.68;1.25;;;;;;;;;;4996727;28;20053;-68
2023/05/17 09:50:45;;;;;;;7.03;1.30;;;;;;;;;;5022274;28;20634;-67
2023/05/17 09:53:30;;;;;;;5.18;1.02;;;;;;;;;;5000661;28;20053;-70
2023/05/17 09:55:58;;;;;;;6.80;1.13;;;;;;;;;;4997172;28;20056;-66
2023/05/17 09:58:27;;;;;;;4.63;0.90;;;;;;;;;;5006037;28;20104;-69
2023/05/17 10:00:58;;;;;;;5.43;1.00;;;;;;;;;;4993986;28;20054;-65
2023/05/17 10:03:26;;;;;;;3.97;1.00;;;;;;;;;;4994997;28;20065;-70
2023/05/17 10:05:53;;;;;;;4.03;1.25;;;;;;;;;;4971207;28;20372;-71
2023/05/17 10:08:24;;;;;;;5.88;1.10;;;;;;;;;;5030651;28;20547;-69
2023/05/17 10:10:52;;;;;;;5.35;1.00;;;;;;;;;;4995725;28;20066;-71
2023/05/17 10:13:23;;;;;;;5.82;1.13;;;;;;;;;;4994814;28;20062;-67
2023/05/17 10:15:50;;;;;;;7.68;1.05;;;;;;;;;;4987791;28;20135;-70
2023/05/17 10:18:19;;;;;;;5.80;0.93;;;;;;;;;;5027762;28;20061;-66
2023/05/17 10:20:51;;;;;;;3.40;0.90;;;;;;;;;;4990428;28;20097;-73
2023/05/17 10:23:21;;;;;;;2.38;0.93;;;;;;;;;;4994649;28;20078;-73
2023/05/17 10:25:47;;;;;;;4.72;0.93;;;;;;;;;;4990091;28;20061;-64
2023/05/17 10:28:15;;;;;;;4.40;1.08;;;;;;;;;;5006824;28;20062;-67
2023/05/17 10:31:01;;;;;;;4.22;0.90;;;;;;;;;;4988627;28;20066;-72
2023/05/17 10:33:31;;;;;;;6.53;1.00;;;;;;;;;;5003618;28;20171;-74
2023/05/17 10:35:58;;;;;;;3.03;0.80;;;;;;;;;;5003833;28;20488;-70
2023/05/17 10:38:25;;;;;;;4.15;1.08;;;;;;;;;;5018897;28;20061;-71
2023/05/17 10:40:53;;;;;;;5.82;1.20;;;;;;;;;;5011807;28;20115;-72
2023/05/17 10:43:20;;;;;;;2.97;0.98;;;;;;;;;;5014936;28;20054;-73
2023/05/17 10:45:46;;;;;;;6.78;1.10;;;;;;;;;;4991939;28;20135;-68
2023/05/17 10:48:15;;;;;;;6.55;1.00;;;;;;;;;;5028443;28;20060;-70
2023/05/17 10:50:41;;;;;;;;;;;;;;;;;;5007679;28;20061;-68
2023/05/17 10:53:11;;;;;;;2.17;0.80;;;;;;;;;;5011425;28;19925;-71
2023/05/17 10:55:38;;;;;;;2.78;0.80;;;;;;;;;;4983774;28;20060;-69
2023/05/17 10:58:15;;;;;;;2.33;1.00;;;;;;;;;;5001898;28;20058;-70
2023/05/17 11:00:44;;;;;;;5.10;1.00;;;;;;;;;;5004779;28;20330;-68
2023/05/17 11:03:12;;;;;;;4.30;1.17;;;;;;;;;;5038144;28;20129;-75
2023/05/17 11:05:41;;;;;;;6.07;1.20;;;;;;;;;;5012591;28;20094;-73
2023/05/17 11:08:18;;;;;;;3.05;0.93;;;;;;;;;;5049225;28;20064;-66
2023/05/17 11:11:07;;;;;;;3.28;0.82;;;;;;;;;;5058533;28;20137;-73
2023/05/17 11:13:33;;;;;;;3.67;0.90;;;;;;;;;;5038251;28;20131;-73
2023/05/17 11:16:05;;;;;;;4.97;1.00;;;;;;;;;;4995836;28;20054;-75
2023/05/17 11:18:51;;;;;;;5.07;1.02;;;;;;;;;;5001974;28;20063;-72
2023/05/17 11:21:24;;;;;;;6.78;1.20;;;;;;;;;;5024943;28;20070;-72
2023/05/17 11:23:57;;;;;;;6.55;1.10;;;;;;;;;;5017602;28;20072;-75
2023/05/17 11:26:28;;;;;;;9.73;2.13;;;;;;;;;;5028860;28;20087;-78
2023/05/17 11:29:03;;;;;;;7.13;0.90;;;;;;;;;;5029979;28;20172;-75
2023/05/17 11:31:36;;;;;;;2.80;0.75;;;;;;;;;;5031180;28;20075;-70
2023/05/17 11:34:03;;;;;;;6.15;1.05;;;;;;;;;;5058663;28;20075;-69
2023/05/17 11:36:54;;;;;;;4.57;0.90;;;;;;;;;;4936957;28;20058;-71
2023/05/17 11:39:25;;;;;;;4.10;1.00;;;;;;;;;;4928813;28;20138;-69
2023/05/17 11:41:59;;;;;;;5.28;1.05;;;;;;;;;;4930330;28;20050;-67
2023/05/17 11:44:30;;;;;;;3.35;1.10;;;;;;;;;;4920035;28;20051;-71
2023/05/17 11:47:10;;;;;;;4.25;1.00;;;;;;;;;;4878385;28;20162;-69
2023/05/17 11:49:41;;;;;;;7.18;1.20;;;;;;;;;;4973200;28;20061;-73
2023/05/17 11:52:08;;;;;;;3.10;0.93;;;;;;;;;;5001205;28;20136;-67
2023/05/17 11:54:37;;;;;;;6.15;1.08;;;;;;;;;;5003846;28;20053;-73
2023/05/17 11:57:04;;;;;;;2.88;0.90;;;;;;;;;;5017489;28;20158;-73
2023/05/17 11:59:37;;;;;;;1.73;0.80;;;;;;;;;;5037386;28;20065;-71
2023/05/17 12:02:03;;;;;;;7.38;1.00;;;;;;;;;;5014140;28;20089;-71
2023/05/17 12:04:31;;;;;;;7.10;1.27;;;;;;;;;;4993910;28;20116;-66
2023/05/17 12:06:57;;;;;;;6.90;1.20;;;;;;;;;;4988378;28;20056;-69
2023/05/17 12:09:26;;;;;;;4.00;0.82;;;;;;;;;;5019275;28;20072;-71
2023/05/17 12:11:52;;;;;;;;;;;;;;;;;;5011248;28;20053;-65
2023/05/17 12:14:22;;;;;;;2.80;0.90;;;;;;;;;;4997431;28;19976;-69
2023/05/17 12:16:51;;;;;;;4.78;1.35;;;;;;;;;;4991273;28;20206;-67
2023/05/17 12:19:18;;;;;;;3.75;1.05;;;;;;;;;;5046523;28;20061;-69
2023/05/17 12:21:53;;;;;;;4.32;0.95;;;;;;;;;;5002062;28;20144;-73
2023/05/17 12:24:25;;;;;;;3.13;1.00;;;;;;;;;;5015998;28;20062;-67
2023/05/17 12:26:55;;;;;;;5.68;1.25;;;;;;;;;;4993892;28;20049;-69
2023/05/17 12:29:24;;;;;;;7.82;1.27;;;;;;;;;;4992771;28;20053;-71
2023/05/17 12:31:52;;;;;;;2.90;1.05;;;;;;;;;;5002837;28;20081;-70
2023/05/17 12:34:18;;;;;;;3.75;0.90;;;;;;;;;;5001926;28;20152;-70
2023/05/17 12:36:50;;;;;;;9.25;1.13;;;;;;;;;;4968363;28;20135;-66
2023/05/17 12:39:26;;;;;;;;;;;;;;;;;;;;;
2023/05/17 12:41:53;;;;;;;5.95;1.10;;;;;;;;;;5034656;28;20089;-73
2023/05/17 12:44:28;;;;;;;6.68;1.10;;;;;;;;;;5003980;28;20065;-68
2023/05/17 12:46:57;;;;;;;3.80;1.00;;;;;;;;;;4997264;28;20086;-68
2023/05/17 12:49:24;;;;;;;10.23;1.58;;;;;;;;;;4999569;28;20050;-68
2023/05/17 12:51:53;;;;;;;4.35;1.20;;;;;;;;;;5004292;28;20045;-70
2023/05/17 12:54:27;;;;;;;3.28;1.00;;;;;;;;;;5031307;28;20081;-70
2023/05/17 12:56:54;;;;;;;4.00;1.00;;;;;;;;;;4988689;28;20861;-71
2023/05/17 12:59:24;;;;;;;8.60;1.20;;;;;;;;;;4997041;28;20081;-68
2023/05/17 13:01:54;;;;;;;4.00;1.00;;;;;;;;;;5001618;28;20359;-70
2023/05/17 13:04:31;;;;;;;6.30;1.20;;;;;;;;;;4995719;28;20097;-69
2023/05/17 13:06:58;;;;;;;8.88;1.10;;;;;;;;;;4987429;28;20169;-73
2023/05/17 13:09:26;;;;;;;3.38;0.90;;;;;;;;;;5002795;28;20169;-73
2023/05/17 13:11:53;;;;;;;5.75;0.98;;;;;;;;;;4997439;28;20077;-68
2023/05/17 13:14:36;;;;;;;2.90;0.98;;;;;;;;;;4993963;28;20060;-68
2023/05/17 13:17:06;;;;;;;7.03;1.20;;;;;;;;;;4987639;28;20072;-67
2023/05/17 13:19:34;;;;;;;7.30;1.40;;;;;;;;;;4994582;28;20153;-73
2023/05/17 13:22:04;;;;;;;4.28;0.82;;;;;;;;;;4997183;28;20061;-70
2023/05/17 13:24:31;;;;;;;2.85;0.90;;;;;;;;;;4988736;28;20149;-70
2023/05/17 13:26:58;;;;;;;4.60;1.10;;;;;;;;;;4984490;28;20045;-73
2023/05/17 13:29:24;;;;;;;6.75;1.17;;;;;;;;;;4996051;28;20104;-71
2023/05/17 13:31:56;;;;;;;6.05;1.30;;;;;;;;;;4998704;28;20062;-71
2023/05/17 13:34:35;;;;;;;4.88;1.02;;;;;;;;;;5004854;28;20062;-68
2023/05/17 13:37:08;;;;;;;3.47;1.05;;;;;;;;;;4957215;28;20090;-69
2023/05/17 13:39:36;;;;;;;7.10;1.05;;;;;;;;;;4986450;28;20382;-72
2023/05/17 13:42:03;;;;;;;11.43;1.42;;;;;;;;;;4994346;28;20127;-69
2023/05/17 13:44:47;;;;;;;7.03;1.40;;;;;;;;;;4991559;28;20177;-68
2023/05/17 13:47:14;;;;;;;4.97;1.40;;;;;;;;;;4994829;28;20068;-70
2023/05/17 13:49:42;;;;;;;4.97;1.42;;;;;;;;;;4995553;28;20050;-70
2023/05/17 13:52:18;;;;;;;6.20;1.13;;;;;;;;;;4995501;28;20058;-73
2023/05/17 13:54:44;;;;;;;6.32;1.00;;;;;;;;;;4995952;28;20058;-69
2023/05/17 13:57:16;;;;;;;3.80;1.48;;;;;;;;;;4970785;28;20065;-73
2023/05/17 13:59:53;;;;;;;6.28;1.55;;;;;;;;;;5010776;28;20085;-69
2023/05/17 14:02:23;;;;;;;4.82;1.33;;;;;;;;;;4999732;28;20054;-68
2023/05/17 14:04:51;;;;;;;9.48;1.23;;;;;;;;;;4992478;28;20057;-69
2023/05/17 14:07:17;;;;;;;4.82;1.42;;;;;;;;;;4997162;28;20130;-72
2023/05/17 14:09:46;;;;;;;3.85;1.58;;;;;;;;;;4999390;28;20065;-70
2023/05/17 14:12:12;;;;;;;8.15;1.65;;;;;;;;;;5002627;28;20069;-73
2023/05/17 14:14:39;;;;;;;9.50;1.50;;;;;;;;;;4989559;28;20081;-71
2023/05/17 14:17:05;;;;;;;7.03;1.15;;;;;;;;;;4969097;28;20120;-69
2023/05/17 14:19:32;;;;;;;7.43;1.35;;;;;;;;;;5042787;28;20054;-68
2023/05/17 14:21:59;;;;;;;6.25;1.33;;;;;;;;;;4998520;28;20089;-71
2023/05/17 14:24:29;;;;;;;7.50;1.33;;;;;;;;;;4993483;28;20080;-71
2023/05/17 14:26:56;;;;;;;9.52;1.58;;;;;;;;;;4973073;28;20080;-68
2023/05/17 14:29:23;;;;;;;8.30;1.33;;;;;;;;;;5020440;28;20068;-69
2023/05/17 14:31:49;;;;;;;5.15;1.40;;;;;;;;;;4995862;28;20081;-71
2023/05/17 14:34:15;;;;;;;6.22;1.25;;;;;;;;;;4999111;28;21034;-68
2023/05/17 14:36:44;;;;;;;8.30;1.60;;;;;;;;;;4968296;28;20148;-68
2023/05/17 14:39:16;;;;;;;8.00;1.52;;;;;;;;;;4963757;28;20062;-68
2023/05/17 14:41:43;;;;;;;5.00;1.38;;;;;;;;;;4976481;28;20085;-68
2023/05/17 14:44:09;;;;;;;6.45;1.23;;;;;;;;;;4989420;28;20107;-69
2023/05/17 14:46:39;;;;;;;7.85;1.55;;;;;;;;;;4999992;28;20058;-71
2023/05/17 14:49:05;;;;;;;7.28;1.20;;;;;;;;;;5007143;28;20057;-69
2023/05/17 14:51:32;;;;;;;3.92;1.05;;;;;;;;;;4977524;28;20118;-69
2023/05/17 14:53:59;;;;;;;6.28;1.45;;;;;;;;;;4982192;28;20073;-67
2023/05/17 14:56:27;;;;;;;7.80;1.45;;;;;;;;;;4963038;28;20050;-70